Time;durP1;ratioP1;P1;durP2;ratioP2;P2;SDS_P1;SDS_P2;PMS_P1;PMS_P2;Temp;Humidity;BMP_temperature;BMP_pressure;BME280_temperature;BME280_humidity;BME280_pressure;Samples;Min_cycle;Max_cycle;Signal;HPM_P1;HPM_P2
2021/07/07 00:01:00;;;;;;;7.13;1.60;;;;;;;14.68;81.84;101150.69;5073126;28;20044;-59
2021/07/07 00:03:28;;;;;;;4.38;1.65;;;;;;;14.63;82.12;101158.13;5074636;28;20044;-59
2021/07/07 00:05:55;;;;;;;5.53;1.90;;;;;;;14.64;81.97;101159.84;5076365;28;20045;-58
2021/07/07 00:08:22;;;;;;;5.22;1.70;;;;;;;14.62;82.11;101151.16;5071764;28;20048;-60
2021/07/07 00:10:49;;;;;;;4.35;1.55;;;;;;;14.61;82.05;101144.16;5079973;28;20500;-58
2021/07/07 00:13:16;;;;;;;4.07;1.60;;;;;;;14.58;82.56;101150.53;5072256;28;20048;-58
2021/07/07 00:15:43;;;;;;;4.38;1.65;;;;;;;14.51;82.73;101144.88;5079687;28;20066;-58
2021/07/07 00:18:10;;;;;;;5.50;1.70;;;;;;;14.48;82.62;101147.75;5086371;28;20047;-58
2021/07/07 00:20:41;;;;;;;8.13;2.10;;;;;;;14.46;82.52;101149.66;5079733;28;20400;-58
2021/07/07 00:23:08;;;;;;;4.97;1.70;;;;;;;14.54;81.75;101154.38;5071698;28;20966;-57
2021/07/07 00:25:35;;;;;;;8.20;2.28;;;;;;;14.50;81.95;101152.94;5079001;28;20032;-58
2021/07/07 00:28:03;;;;;;;5.72;1.67;;;;;;;14.41;82.04;101148.34;5080708;28;20053;-61
2021/07/07 00:30:30;;;;;;;9.25;2.38;;;;;;;14.35;82.22;101150.50;5079852;28;20048;-60
2021/07/07 00:32:57;;;;;;;5.20;1.80;;;;;;;14.30;82.33;101144.72;5068810;28;20044;-60
2021/07/07 00:35:25;;;;;;;5.90;1.80;;;;;;;14.29;82.28;101150.97;5080789;28;20046;-59
2021/07/07 00:37:52;;;;;;;6.90;2.00;;;;;;;14.22;82.82;101149.75;5077802;28;20479;-58
2021/07/07 00:40:19;;;;;;;6.35;2.17;;;;;;;14.23;82.71;101151.41;5071247;28;20408;-59
2021/07/07 00:42:47;;;;;;;3.90;1.85;;;;;;;14.15;83.10;101152.03;5070831;28;20530;-57
2021/07/07 00:45:14;;;;;;;4.68;1.95;;;;;;;14.19;82.84;101147.31;5082757;28;20053;-57
2021/07/07 00:47:43;;;;;;;4.55;2.20;;;;;;;14.13;82.98;101146.00;5069141;28;20147;-57
2021/07/07 00:50:13;;;;;;;4.13;1.75;;;;;;;14.12;83.47;101154.03;5070898;28;20398;-57
2021/07/07 00:52:40;;;;;;;4.93;1.95;;;;;;;14.15;83.20;101156.44;5079004;28;20053;-57
2021/07/07 00:55:09;;;;;;;4.28;2.08;;;;;;;14.15;83.59;101151.16;5078299;28;20044;-58
2021/07/07 00:57:36;;;;;;;4.47;1.95;;;;;;;14.01;84.19;101147.75;5068375;28;20056;-58
2021/07/07 01:00:08;;;;;;;5.68;2.10;;;;;;;14.00;84.11;101158.44;5075278;28;20397;-57
2021/07/07 01:02:41;;;;;;;4.93;2.30;;;;;;;14.02;84.31;101157.38;5069235;28;20105;-61
2021/07/07 01:05:09;;;;;;;6.22;2.35;;;;;;;14.07;83.72;101154.41;5079464;28;20048;-57
2021/07/07 01:07:36;;;;;;;7.15;2.13;;;;;;;14.03;84.00;101163.53;5085141;28;20086;-58
2021/07/07 01:10:09;;;;;;;5.35;2.20;;;;;;;14.08;83.65;101149.94;5070267;28;20447;-57
2021/07/07 01:12:36;;;;;;;6.68;2.35;;;;;;;14.07;83.48;101158.84;5069107;28;20049;-60
2021/07/07 01:15:05;;;;;;;6.00;2.75;;;;;;;14.06;83.76;101165.94;5070609;28;20059;-60
2021/07/07 01:17:32;;;;;;;5.35;2.40;;;;;;;14.06;83.23;101157.13;5068343;28;20093;-57
2021/07/07 01:20:00;;;;;;;6.50;2.50;;;;;;;13.99;83.38;101159.44;5051938;28;20106;-57
2021/07/07 01:22:30;;;;;;;6.50;2.83;;;;;;;14.01;83.11;101150.38;5069241;28;20051;-59
2021/07/07 01:24:57;;;;;;;4.03;2.33;;;;;;;13.97;83.47;101159.50;5069426;28;20040;-58
2021/07/07 01:27:26;;;;;;;9.38;2.50;;;;;;;13.96;83.50;101164.91;5069550;28;20040;-58
2021/07/07 01:29:53;;;;;;;7.65;2.88;;;;;;;13.99;83.37;101159.44;5070384;28;20060;-59
2021/07/07 01:32:20;;;;;;;5.57;2.42;;;;;;;13.94;83.56;101151.00;5068231;28;20048;-58
2021/07/07 01:34:47;;;;;;;5.70;2.67;;;;;;;13.89;83.78;101153.13;5085833;28;20523;-59
2021/07/07 01:37:14;;;;;;;5.25;2.60;;;;;;;13.86;83.98;101149.75;5070140;28;20102;-58
2021/07/07 01:39:41;;;;;;;6.20;2.92;;;;;;;13.87;83.27;101145.31;5070029;28;20059;-58
2021/07/07 01:42:08;;;;;;;5.63;2.75;;;;;;;13.83;83.78;101149.97;5069410;28;20037;-57
2021/07/07 01:44:35;;;;;;;6.78;3.00;;;;;;;13.81;84.09;101143.97;5069848;28;20049;-57
2021/07/07 01:47:03;;;;;;;6.47;2.90;;;;;;;13.84;83.88;101150.84;5067490;28;20106;-57
2021/07/07 01:49:30;;;;;;;6.00;3.05;;;;;;;13.78;83.34;101144.16;5070046;28;20051;-57
2021/07/07 01:51:57;;;;;;;7.28;3.45;;;;;;;13.81;83.73;101151.03;5069257;28;20040;-57
2021/07/07 01:54:24;;;;;;;5.15;2.55;;;;;;;13.77;83.27;101146.94;5085584;28;20058;-58
2021/07/07 01:56:51;;;;;;;7.82;2.75;;;;;;;13.73;83.50;101142.84;5069646;28;20059;-58
2021/07/07 01:59:17;;;;;;;8.77;2.80;;;;;;;13.69;83.09;101151.00;5069161;28;20045;-58
2021/07/07 02:01:44;;;;;;;5.18;2.65;;;;;;;13.66;83.34;101153.88;5067666;28;20567;-59
2021/07/07 02:04:11;;;;;;;5.40;2.70;;;;;;;13.62;83.16;101157.69;5067082;28;20753;-58
2021/07/07 02:06:38;;;;;;;5.97;3.00;;;;;;;13.56;83.36;101150.19;5068378;28;20081;-58
2021/07/07 02:09:05;;;;;;;6.63;2.90;;;;;;;13.56;83.23;101147.56;5068862;28;20056;-58
2021/07/07 02:11:34;;;;;;;6.07;2.95;;;;;;;13.56;83.53;101159.94;5085365;28;20381;-58
2021/07/07 02:14:02;;;;;;;4.82;2.60;;;;;;;13.61;83.79;101161.28;5069617;28;20094;-57
2021/07/07 02:16:28;;;;;;;7.88;3.50;;;;;;;13.54;84.09;101146.84;5068864;28;20045;-57
2021/07/07 02:18:55;;;;;;;4.28;2.67;;;;;;;13.52;83.81;101157.53;5067044;28;20048;-57
2021/07/07 02:21:22;;;;;;;5.22;3.35;;;;;;;13.49;83.77;101159.53;5069221;28;20045;-57
2021/07/07 02:23:49;;;;;;;9.35;3.33;;;;;;;13.44;83.91;101157.25;5084737;28;20060;-59
2021/07/07 02:26:16;;;;;;;6.05;2.72;;;;;;;13.39;83.57;101163.78;5085075;28;20064;-58
2021/07/07 02:28:42;;;;;;;6.20;3.40;;;;;;;13.39;84.33;101163.78;5069328;28;20048;-56
2021/07/07 02:31:10;;;;;;;7.50;3.45;;;;;;;13.32;85.26;101163.34;5069131;28;20076;-57
2021/07/07 02:33:37;;;;;;;8.10;3.50;;;;;;;13.28;85.58;101172.44;5067546;28;20041;-57
2021/07/07 02:36:07;;;;;;;6.78;3.42;;;;;;;13.26;86.09;101162.00;5069007;28;20414;-58
2021/07/07 02:38:34;;;;;;;7.13;3.55;;;;;;;13.20;86.74;101167.72;5067991;28;20098;-58
2021/07/07 02:41:01;;;;;;;6.82;3.50;;;;;;;13.24;86.44;101173.63;5069326;28;20041;-58
2021/07/07 02:43:28;;;;;;;5.95;3.30;;;;;;;13.22;86.60;101173.72;5067915;28;20048;-58
2021/07/07 02:45:55;;;;;;;10.27;4.20;;;;;;;13.25;86.27;101175.31;5068990;28;20408;-57
2021/07/07 02:48:22;;;;;;;10.00;3.60;;;;;;;13.24;86.20;101179.75;5065952;28;20492;-58
2021/07/07 02:50:49;;;;;;;6.78;3.30;;;;;;;13.30;85.43;101170.56;5069354;28;20053;-56
2021/07/07 02:53:17;;;;;;;6.57;2.95;;;;;;;13.28;85.66;101169.81;5069595;28;20405;-57
2021/07/07 02:55:45;;;;;;;7.72;3.47;;;;;;;13.27;85.48;101174.25;5068348;28;20060;-57
2021/07/07 02:58:12;;;;;;;5.95;3.10;;;;;;;13.29;85.62;101177.66;5068631;28;20049;-56
2021/07/07 03:00:41;;;;;;;5.25;3.10;;;;;;;13.25;86.04;101175.31;5069102;28;20059;-57
2021/07/07 03:03:16;;;;;;;8.65;3.35;;;;;;;13.30;85.45;101173.19;5067037;28;20481;-56
2021/07/07 03:05:50;;;;;;;7.30;3.60;;;;;;;13.16;85.93;101174.19;5072440;28;20636;-57
2021/07/07 03:08:18;;;;;;;10.20;4.05;;;;;;;13.24;85.63;101174.47;5071415;28;20474;-57
2021/07/07 03:10:45;;;;;;;11.38;4.10;;;;;;;13.13;85.96;101171.72;5088878;28;20051;-56
2021/07/07 03:13:14;;;;;;;7.50;3.65;;;;;;;13.09;86.48;101178.19;5088356;28;20045;-56
2021/07/07 03:15:40;;;;;;;9.70;4.25;;;;;;;13.06;86.62;101178.41;5072744;28;20052;-59
2021/07/07 03:18:08;;;;;;;6.90;3.90;;;;;;;13.06;86.79;101168.72;5070498;28;20049;-58
2021/07/07 03:20:36;;;;;;;7.78;4.05;;;;;;;13.04;86.70;101172.41;5055308;28;20060;-59
2021/07/07 03:23:04;;;;;;;6.93;3.58;;;;;;;13.05;87.02;101174.94;5071342;28;20097;-60
2021/07/07 03:25:31;;;;;;;8.85;4.13;;;;;;;13.09;86.86;101172.91;5071143;28;20500;-58
2021/07/07 03:27:58;;;;;;;9.18;4.03;;;;;;;13.02;87.07;101181.28;5071172;28;20045;-59
2021/07/07 03:30:26;;;;;;;9.60;4.00;;;;;;;13.07;87.22;101188.03;5072687;28;20040;-58
2021/07/07 03:32:57;;;;;;;9.90;3.63;;;;;;;13.04;87.27;101185.59;5070383;28;20420;-58
2021/07/07 03:35:25;;;;;;;7.93;4.20;;;;;;;13.04;87.68;101196.16;5087587;28;20055;-57
2021/07/07 03:37:52;;;;;;;7.32;3.80;;;;;;;13.04;87.69;101198.81;5072108;28;20045;-57
2021/07/07 03:40:19;;;;;;;9.48;4.30;;;;;;;13.11;87.68;101206.19;5071181;28;20057;-57
2021/07/07 03:42:46;;;;;;;8.27;4.22;;;;;;;13.02;88.86;101209.47;5070978;28;20496;-57
2021/07/07 03:45:16;;;;;;;7.82;3.78;;;;;;;13.04;88.88;101209.38;5072343;28;20058;-56
2021/07/07 03:47:43;;;;;;;10.10;4.00;;;;;;;13.13;89.19;101208.69;5068482;28;20056;-56
2021/07/07 03:50:10;;;;;;;10.63;4.57;;;;;;;13.24;88.65;101207.94;5071870;28;20059;-56
2021/07/07 03:52:37;;;;;;;8.77;4.78;;;;;;;13.21;88.99;101211.69;5070801;28;20108;-58
2021/07/07 03:55:07;;;;;;;7.40;4.00;;;;;;;13.26;88.93;101209.53;5087497;28;20509;-58
2021/07/07 03:57:34;;;;;;;7.82;4.40;;;;;;;13.33;88.94;101202.88;5086601;28;20055;-58
2021/07/07 04:00:01;;;;;;;9.40;4.47;;;;;;;13.34;89.19;101209.00;5087110;28;20061;-56
2021/07/07 04:02:27;;;;;;;11.07;4.30;;;;;;;13.38;88.83;101207.03;5069228;28;20052;-57
2021/07/07 04:04:54;;;;;;;6.95;3.97;;;;;;;13.45;88.68;101202.97;5071594;28;20048;-56
2021/07/07 04:07:21;;;;;;;7.45;3.60;;;;;;;13.52;88.39;101213.00;5070862;28;20047;-57
2021/07/07 04:09:48;;;;;;;8.02;3.47;;;;;;;13.51;88.21;101213.09;5087038;28;20127;-58
2021/07/07 04:12:15;;;;;;;6.43;3.28;;;;;;;13.56;88.02;101212.78;5070406;28;20040;-58
2021/07/07 04:14:41;;;;;;;6.47;3.58;;;;;;;13.51;87.91;101210.44;5071144;28;20097;-58
2021/07/07 04:17:08;;;;;;;7.60;3.72;;;;;;;13.51;88.25;101221.88;5067661;28;20055;-57
2021/07/07 04:19:35;;;;;;;7.57;4.43;;;;;;;13.58;87.79;101222.28;5071461;28;20094;-59
2021/07/07 04:22:03;;;;;;;10.27;3.90;;;;;;;13.57;88.00;101214.47;5069766;28;20552;-56
2021/07/07 04:24:29;;;;;;;7.07;3.35;;;;;;;13.63;87.56;101221.94;5070834;28;20063;-57
2021/07/07 04:26:56;;;;;;;7.97;3.33;;;;;;;13.62;87.60;101221.13;5070582;28;20068;-58
2021/07/07 04:29:23;;;;;;;8.07;3.58;;;;;;;13.60;87.57;101223.00;5071114;28;20040;-57
2021/07/07 04:31:53;;;;;;;7.68;3.35;;;;;;;13.65;87.40;101225.34;5069231;28;20040;-58
2021/07/07 04:34:20;;;;;;;8.27;3.42;;;;;;;13.73;86.93;101225.63;5069970;28;20439;-58
2021/07/07 04:36:47;;;;;;;9.30;3.28;;;;;;;13.72;86.95;101226.56;5086180;28;20056;-60
2021/07/07 04:39:14;;;;;;;9.82;3.75;;;;;;;13.71;86.82;101230.16;5071439;28;20098;-59
2021/07/07 04:41:41;;;;;;;8.27;3.55;;;;;;;13.76;86.60;101235.13;5071297;28;20063;-59
2021/07/07 04:44:08;;;;;;;6.95;3.30;;;;;;;13.74;86.95;101235.22;5070439;28;20277;-57
2021/07/07 04:46:35;;;;;;;7.30;3.30;;;;;;;13.78;86.56;101243.78;5070089;28;20055;-57
2021/07/07 04:49:02;;;;;;;9.23;3.70;;;;;;;13.78;86.51;101241.16;5051589;28;20135;-59
2021/07/07 04:51:30;;;;;;;7.55;3.97;;;;;;;13.84;86.05;101241.53;5070686;28;20056;-59
2021/07/07 04:53:57;;;;;;;8.45;3.45;;;;;;;13.87;86.16;101243.13;5069535;28;20059;-56
2021/07/07 04:56:24;;;;;;;6.57;3.22;;;;;;;13.97;86.49;101241.47;5071077;28;20056;-57
2021/07/07 04:58:51;;;;;;;8.00;3.15;;;;;;;14.03;86.52;101237.56;5068755;28;20044;-57
2021/07/07 05:01:18;;;;;;;9.88;3.75;;;;;;;14.07;86.94;101246.09;5070421;28;20060;-58
2021/07/07 05:03:45;;;;;;;7.05;3.42;;;;;;;14.14;86.61;101247.34;5084294;28;20056;-59
2021/07/07 05:06:11;;;;;;;10.43;3.60;;;;;;;14.23;86.43;101246.66;5070497;28;20040;-59
2021/07/07 05:08:38;;;;;;;6.97;3.63;;;;;;;14.25;85.43;101244.75;5085776;28;20453;-59
2021/07/07 05:11:05;;;;;;;6.63;3.25;;;;;;;14.28;86.13;101244.50;5070676;28;20508;-59
2021/07/07 05:13:32;;;;;;;8.05;3.30;;;;;;;14.42;85.33;101242.66;5085944;28;20048;-59
2021/07/07 05:15:59;;;;;;;7.63;3.03;;;;;;;14.46;85.67;101242.28;5070215;28;20109;-59
2021/07/07 05:18:26;;;;;;;5.55;2.97;;;;;;;14.50;85.42;101240.25;5068217;28;20056;-60
2021/07/07 05:20:53;;;;;;;9.18;3.15;;;;;;;14.57;84.95;101241.47;5069300;28;20045;-60
2021/07/07 05:23:20;;;;;;;8.07;3.20;;;;;;;14.59;85.50;101244.88;5070340;28;20049;-58
2021/07/07 05:25:47;;;;;;;8.07;2.97;;;;;;;14.65;85.85;101244.41;5069143;28;20063;-57
2021/07/07 05:28:14;;;;;;;8.82;3.40;;;;;;;14.66;85.27;101242.63;5069072;28;20049;-58
2021/07/07 05:30:41;;;;;;;6.03;3.17;;;;;;;14.69;84.43;101248.50;5070421;28;20055;-57
2021/07/07 05:33:09;;;;;;;9.48;2.95;;;;;;;14.81;84.89;101245.91;5067832;28;20059;-58
2021/07/07 05:35:36;;;;;;;21.92;4.03;;;;;;;14.87;83.84;101256.00;5070401;28;20051;-58
2021/07/07 05:38:04;;;;;;;7.47;3.35;;;;;;;15.00;83.23;101258.56;5069243;28;20055;-59
2021/07/07 05:40:32;;;;;;;9.90;3.22;;;;;;;15.03;83.28;101260.97;5070285;28;20117;-58
2021/07/07 05:42:59;;;;;;;11.30;3.55;;;;;;;15.04;83.14;101246.78;5068238;28;20127;-56
2021/07/07 05:45:27;;;;;;;10.18;3.22;;;;;;;15.17;82.66;101254.59;5069665;28;20048;-56
2021/07/07 05:47:55;;;;;;;9.07;3.15;;;;;;;15.16;82.43;101252.91;5082685;28;20676;-57
2021/07/07 05:50:24;;;;;;;9.23;3.63;;;;;;;15.19;83.00;101253.53;5085308;28;20432;-59
2021/07/07 05:52:51;;;;;;;8.90;3.53;;;;;;;15.24;83.13;101261.09;5068423;28;20052;-60
2021/07/07 05:55:20;;;;;;;7.97;3.17;;;;;;;15.32;82.31;101261.34;5069978;28;20052;-60
2021/07/07 05:57:47;;;;;;;7.95;3.00;;;;;;;15.41;82.20;101262.44;5069295;28;20044;-59
2021/07/07 06:00:20;;;;;;;7.10;2.65;;;;;;;15.41;82.28;101270.38;5069631;28;20560;-60
2021/07/07 06:02:48;;;;;;;7.90;3.30;;;;;;;15.44;81.80;101269.31;5067027;28;20562;-59
2021/07/07 06:05:15;;;;;;;9.32;3.45;;;;;;;15.49;82.04;101265.31;5069648;28;20044;-59
2021/07/07 06:07:43;;;;;;;8.30;2.97;;;;;;;15.62;80.38;101280.25;5068419;28;20485;-59
2021/07/07 06:10:13;;;;;;;8.68;4.38;;;;;;;15.58;81.14;101276.97;5084983;28;20558;-59
2021/07/07 06:12:41;;;;;;;8.40;3.33;;;;;;;15.58;80.58;101276.97;5069382;28;20439;-60
2021/07/07 06:15:09;;;;;;;8.30;3.53;;;;;;;15.60;81.29;101283.03;5084869;28;20054;-61
2021/07/07 06:17:36;;;;;;;6.65;3.38;;;;;;;15.69;80.09;101286.72;5066926;28;20059;-57
2021/07/07 06:20:08;;;;;;;10.70;3.70;;;;;;;15.65;79.73;101294.09;5069670;28;20044;-54
2021/07/07 06:22:36;;;;;;;8.07;3.70;;;;;;;15.72;80.45;101289.16;5084740;28;20063;-57
2021/07/07 06:25:04;;;;;;;7.57;3.42;;;;;;;15.74;81.08;101297.81;5084657;28;20607;-57
2021/07/07 06:27:31;;;;;;;11.48;3.63;;;;;;;15.93;80.70;101299.03;5068671;28;20497;-57
2021/07/07 06:29:58;;;;;;;13.00;3.75;;;;;;;15.91;80.40;101298.31;5069232;28;20048;-57
2021/07/07 06:32:25;;;;;;;8.75;3.63;;;;;;;16.02;80.81;101299.13;5066880;28;20048;-59
2021/07/07 06:34:52;;;;;;;10.82;3.80;;;;;;;16.06;80.12;101294.44;5084747;28;20456;-57
2021/07/07 06:37:18;;;;;;;8.45;3.20;;;;;;;16.10;79.39;101297.66;5069337;28;20056;-57
2021/07/07 06:39:45;;;;;;;9.23;3.80;;;;;;;16.18;80.07;101296.09;5072705;28;20048;-57
2021/07/07 06:42:12;;;;;;;9.20;3.38;;;;;;;16.22;79.99;101308.13;5073167;28;20501;-57
2021/07/07 06:44:39;;;;;;;10.30;3.70;;;;;;;16.31;80.01;101309.19;5073213;28;20048;-57
2021/07/07 06:47:06;;;;;;;9.57;3.58;;;;;;;16.41;79.43;101305.78;5070392;28;20327;-57
2021/07/07 06:49:33;;;;;;;9.25;3.60;;;;;;;16.55;78.78;101300.13;5072726;28;20174;-58
2021/07/07 06:52:00;;;;;;;11.00;3.97;;;;;;;16.52;78.48;101303.06;5072585;28;20048;-61
2021/07/07 06:54:27;;;;;;;9.55;4.38;;;;;;;16.62;78.27;101300.47;5072475;28;20049;-61
2021/07/07 06:56:54;;;;;;;9.52;3.97;;;;;;;16.76;77.79;101304.66;5072341;28;20052;-61
2021/07/07 06:59:20;;;;;;;9.68;3.70;;;;;;;16.80;78.73;101306.06;5072658;28;20123;-62
2021/07/07 07:01:47;;;;;;;8.60;3.90;;;;;;;16.82;78.04;101304.94;5053366;28;20057;-62
2021/07/07 07:04:14;;;;;;;9.73;4.15;;;;;;;16.81;77.98;101307.72;5071693;28;20048;-59
2021/07/07 07:06:41;;;;;;;14.30;4.40;;;;;;;16.87;77.38;101307.22;5072068;28;20079;-59
2021/07/07 07:09:08;;;;;;;8.05;3.88;;;;;;;17.11;77.88;101312.31;5071891;28;20098;-58
2021/07/07 07:11:35;;;;;;;9.32;3.83;;;;;;;17.27;76.85;101306.50;5072144;28;20045;-58
2021/07/07 07:14:02;;;;;;;8.15;3.70;;;;;;;17.52;76.94;101305.22;5072093;28;20102;-58
2021/07/07 07:16:29;;;;;;;9.38;3.78;;;;;;;17.57;74.31;101310.13;5071793;28;20441;-59
2021/07/07 07:18:55;;;;;;;9.48;3.88;;;;;;;17.67;74.96;101308.34;5069554;28;20056;-57
2021/07/07 07:21:22;;;;;;;11.00;4.00;;;;;;;17.94;76.28;101314.88;5071623;28;20045;-58
2021/07/07 07:23:49;;;;;;;8.80;3.97;;;;;;;18.05;73.25;101317.44;5087900;28;20051;-58
2021/07/07 07:26:17;;;;;;;12.18;3.70;;;;;;;18.43;73.66;101320.25;5072976;28;20507;-58
2021/07/07 07:28:44;;;;;;;9.30;3.88;;;;;;;18.54;73.12;101329.94;5087511;28;20063;-59
2021/07/07 07:31:11;;;;;;;8.55;3.47;;;;;;;18.67;72.87;101333.16;5070714;28;20048;-57
2021/07/07 07:33:38;;;;;;;11.85;3.45;;;;;;;18.88;73.27;101334.84;5069569;28;20041;-57
2021/07/07 07:36:23;;;;;;;9.70;2.83;;;;;;;19.05;71.60;101338.63;5071485;28;20068;-60
2021/07/07 07:38:58;;;;;;;8.48;2.78;;;;;;;19.13;70.14;101336.06;5072374;28;20044;-60
2021/07/07 07:41:37;;;;;;;8.23;2.80;;;;;;;19.29;69.05;101331.94;5071834;28;20044;-60
2021/07/07 07:44:08;;;;;;;11.27;2.53;;;;;;;19.57;69.64;101343.50;5071054;28;20075;-57
2021/07/07 07:46:35;;;;;;;7.88;2.60;;;;;;;19.76;67.83;101339.91;5071287;28;20072;-59
2021/07/07 07:49:04;;;;;;;8.20;2.50;;;;;;;19.75;66.01;101339.03;5069196;28;20048;-60
2021/07/07 07:51:32;;;;;;;9.25;2.78;;;;;;;19.92;65.55;101341.97;5072361;28;20075;-60
2021/07/07 07:53:59;;;;;;;7.45;2.40;;;;;;;20.19;64.32;101337.56;5071710;28;20036;-60
2021/07/07 07:56:26;;;;;;;7.70;2.72;;;;;;;20.46;64.46;101338.50;5071547;28;20439;-60
2021/07/07 07:58:53;;;;;;;9.35;2.60;;;;;;;20.64;63.03;101338.50;5072515;28;20052;-60
2021/07/07 08:01:20;;;;;;;10.35;2.50;;;;;;;20.83;63.81;101343.69;5072161;28;20049;-60
2021/07/07 08:03:47;;;;;;;9.70;2.30;;;;;;;21.15;64.24;101339.56;5069557;28;20481;-58
2021/07/07 08:06:14;;;;;;;5.63;1.90;;;;;;;21.39;61.45;101341.56;5071862;28;20052;-58
2021/07/07 08:08:41;;;;;;;9.07;2.10;;;;;;;21.59;60.20;101346.69;5071521;28;20109;-59
2021/07/07 08:11:07;;;;;;;5.05;1.83;;;;;;;21.82;58.88;101338.09;5071536;28;20052;-58
2021/07/07 08:13:37;;;;;;;4.78;2.05;;;;;;;21.88;58.45;101348.13;5053735;28;20036;-59
2021/07/07 08:16:04;;;;;;;10.68;2.50;;;;;;;21.87;58.18;101343.78;5070530;28;20040;-61
2021/07/07 08:18:31;;;;;;;8.05;2.13;;;;;;;21.89;58.24;101341.78;5069802;28;20082;-61
2021/07/07 08:20:58;;;;;;;8.80;2.25;;;;;;;21.81;56.48;101339.09;5072530;28;20048;-61
2021/07/07 08:23:25;;;;;;;7.40;1.90;;;;;;;22.30;57.79;101347.22;5072079;28;20131;-59
2021/07/07 08:25:52;;;;;;;6.65;2.53;;;;;;;22.45;56.93;101347.44;5072126;28;20114;-60
2021/07/07 08:28:19;;;;;;;6.07;2.05;;;;;;;22.77;56.67;101349.31;5071971;28;20053;-59
2021/07/07 08:30:46;;;;;;;5.70;2.13;;;;;;;23.01;54.25;101344.91;5071710;28;20052;-60
2021/07/07 08:33:14;;;;;;;7.15;2.00;;;;;;;23.15;53.54;101337.22;5070335;28;20052;-58
2021/07/07 08:35:41;;;;;;;6.28;1.92;;;;;;;23.43;54.82;101341.16;5070084;28;20056;-59
2021/07/07 08:38:08;;;;;;;10.75;2.45;;;;;;;23.51;53.42;101337.63;5086336;28;20047;-58
2021/07/07 08:40:35;;;;;;;7.85;2.40;;;;;;;23.83;52.52;101340.34;5071661;28;20045;-58
2021/07/07 08:43:04;;;;;;;8.35;1.90;;;;;;;23.84;52.61;101345.53;5068528;28;20505;-58
2021/07/07 08:45:33;;;;;;;5.38;1.48;;;;;;;24.05;50.87;101344.97;5070282;28;20051;-58
2021/07/07 08:48:00;;;;;;;5.38;1.85;;;;;;;23.85;50.96;101349.91;5067362;28;20050;-58
2021/07/07 08:50:29;;;;;;;8.07;1.80;;;;;;;23.84;50.73;101355.44;5069230;28;20551;-59
2021/07/07 08:52:58;;;;;;;5.15;1.70;;;;;;;24.16;50.72;101348.25;5085688;28;20714;-58
2021/07/07 08:55:25;;;;;;;4.85;1.60;;;;;;;24.29;49.41;101356.56;5070259;28;20044;-60
2021/07/07 08:57:53;;;;;;;3.42;1.48;;;;;;;24.60;50.85;101350.28;5070689;28;20054;-60
2021/07/07 09:00:33;;;;;;;5.93;1.60;;;;;;;24.91;49.91;101354.72;5070155;28;20061;-61
2021/07/07 09:03:03;;;;;;;5.18;1.70;;;;;;;24.72;48.24;101356.94;5067889;28;20509;-61
2021/07/07 09:05:33;;;;;;;6.43;1.85;;;;;;;24.66;47.71;101362.19;5068075;28;20412;-60
2021/07/07 09:08:05;;;;;;;6.15;1.80;;;;;;;24.33;47.81;101351.66;5084872;28;20535;-60
2021/07/07 09:10:32;;;;;;;4.80;1.48;;;;;;;24.37;49.33;101355.66;5069925;28;20100;-61
2021/07/07 09:13:09;;;;;;;4.68;1.73;;;;;;;23.88;49.70;101364.81;5069196;28;20049;-61
2021/07/07 09:15:37;;;;;;;3.28;1.48;;;;;;;23.86;49.15;101358.78;5069477;28;20587;-60
2021/07/07 09:18:04;;;;;;;7.75;2.05;;;;;;;23.96;48.85;101364.81;5082640;28;20103;-61
2021/07/07 09:20:40;;;;;;;4.43;1.50;;;;;;;23.95;48.75;101374.69;5069630;28;20591;-60
2021/07/07 09:23:23;;;;;;;6.70;1.60;;;;;;;24.12;48.75;101370.09;5068981;28;20566;-60
2021/07/07 09:25:58;;;;;;;7.18;1.83;;;;;;;24.79;48.74;101379.38;5069118;28;20412;-62
2021/07/07 09:28:26;;;;;;;8.60;2.03;;;;;;;24.98;47.50;101382.59;5068913;28;20045;-60
2021/07/07 09:30:56;;;;;;;5.32;1.58;;;;;;;24.96;47.16;101384.63;5069020;28;20952;-60
2021/07/07 09:33:23;;;;;;;4.97;1.73;;;;;;;24.85;45.75;101380.50;5083225;28;20512;-61
2021/07/07 09:36:24;;;;;;;6.88;1.67;;;;;;;24.76;47.40;101385.13;5069017;28;20134;-60
2021/07/07 09:38:52;;;;;;;7.90;1.73;;;;;;;24.37;46.41;101382.53;5068323;28;20454;-60
2021/07/07 09:41:20;;;;;;;6.43;1.55;;;;;;;24.20;45.47;101389.84;5069462;28;20060;-59
2021/07/07 09:43:51;;;;;;;4.90;1.95;;;;;;;24.14;47.13;101400.28;5067217;28;20045;-58
2021/07/07 09:46:19;;;;;;;5.20;1.83;;;;;;;24.25;46.37;101390.16;5085078;28;20055;-59
2021/07/07 09:48:50;;;;;;;6.85;1.92;;;;;;;24.01;47.96;101391.97;5066954;28;20046;-59
2021/07/07 09:51:18;;;;;;;6.20;1.50;;;;;;;24.35;46.88;101395.31;5068995;28;20052;-59
2021/07/07 09:53:45;;;;;;;8.05;1.75;;;;;;;24.71;46.64;101397.47;5084814;28;20528;-60
2021/07/07 09:56:12;;;;;;;8.63;1.58;;;;;;;24.87;46.32;101391.09;5069477;28;20060;-59
2021/07/07 09:58:39;;;;;;;6.53;1.50;;;;;;;25.09;46.47;101394.78;5068707;28;20067;-59
2021/07/07 10:01:06;;;;;;;4.47;1.75;;;;;;;25.10;46.35;101408.03;5083393;28;20059;-59
2021/07/07 10:03:33;;;;;;;5.18;1.30;;;;;;;25.05;43.42;101405.06;5065142;28;20048;-59
2021/07/07 10:06:02;;;;;;;3.58;1.15;;;;;;;25.00;44.32;101407.44;5068201;28;20852;-60
2021/07/07 10:08:30;;;;;;;6.80;1.65;;;;;;;24.98;43.93;101398.75;5068091;28;20052;-59
2021/07/07 10:11:00;;;;;;;5.53;1.50;;;;;;;24.74;44.55;101405.97;5083077;28;20063;-59
2021/07/07 10:13:27;;;;;;;5.65;1.50;;;;;;;25.44;43.70;101403.19;5083276;28;20052;-59
2021/07/07 10:15:54;;;;;;;7.05;1.70;;;;;;;25.21;42.67;101404.06;5068062;28;20135;-59
2021/07/07 10:18:21;;;;;;;5.85;1.63;;;;;;;24.95;44.58;101399.09;5081192;28;20090;-59
2021/07/07 10:20:48;;;;;;;7.25;1.75;;;;;;;25.25;44.38;101400.00;5068469;28;20382;-60
2021/07/07 10:23:15;;;;;;;6.55;1.58;;;;;;;25.49;42.63;101395.38;5066959;28;20040;-59
2021/07/07 10:25:57;;;;;;;5.25;1.60;;;;;;;25.96;44.04;101402.22;5066860;28;20662;-60
2021/07/07 10:28:23;;;;;;;7.25;1.88;;;;;;;25.70;42.83;101401.88;5067846;28;20603;-58
2021/07/07 10:31:01;;;;;;;6.90;2.08;;;;;;;25.79;43.46;101406.16;5068302;28;20044;-60
2021/07/07 10:33:36;;;;;;;4.13;1.55;;;;;;;26.04;41.99;101409.41;5032634;28;20072;-60
2021/07/07 10:36:23;;;;;;;7.90;1.60;;;;;;;26.02;41.95;101410.59;5083002;28;20127;-60
2021/07/07 10:39:04;;;;;;;5.85;1.67;;;;;;;25.85;42.39;101410.81;5068043;28;20055;-60
2021/07/07 10:41:46;;;;;;;4.63;1.25;;;;;;;25.50;40.72;101410.53;5068663;28;20059;-60
2021/07/07 10:44:22;;;;;;;4.28;1.45;;;;;;;25.62;42.67;101421.69;5066804;28;20121;-59
2021/07/07 10:46:52;;;;;;;5.93;1.40;;;;;;;25.22;42.69;101434.50;5067424;28;20049;-60
2021/07/07 10:49:25;;;;;;;6.15;1.88;;;;;;;25.40;43.08;101424.25;5067370;28;20049;-60
2021/07/07 10:51:59;;;;;;;6.25;1.75;;;;;;;25.11;42.99;101423.19;5068470;28;20048;-60
2021/07/07 10:54:31;;;;;;;7.80;1.60;;;;;;;25.26;44.17;101428.56;5068206;28;20075;-60
2021/07/07 10:56:59;;;;;;;7.90;1.53;;;;;;;25.39;44.30;101424.47;5067987;28;20056;-60
2021/07/07 10:59:30;;;;;;;5.05;1.65;;;;;;;25.59;44.14;101422.03;5068417;28;20296;-61
2021/07/07 11:02:08;;;;;;;8.15;1.50;;;;;;;26.04;42.66;101430.13;5065637;28;20053;-60
2021/07/07 11:04:41;;;;;;;7.40;1.73;;;;;;;26.01;42.53;101420.50;5067565;28;20032;-60
2021/07/07 11:07:32;;;;;;;6.10;1.48;;;;;;;25.92;43.05;101427.88;5067796;28;20059;-60
2021/07/07 11:10:17;;;;;;;4.57;1.40;;;;;;;25.66;42.45;101422.97;5068216;28;20044;-60
2021/07/07 11:12:44;;;;;;;5.30;1.60;;;;;;;25.57;42.52;101433.00;5068090;28;20059;-60
2021/07/07 11:15:25;;;;;;;7.13;1.58;;;;;;;25.38;45.82;101437.06;5068164;28;20114;-58
2021/07/07 11:17:54;;;;;;;6.45;1.50;;;;;;;25.36;44.00;101439.13;5065876;28;20424;-59
2021/07/07 11:20:22;;;;;;;5.05;1.42;;;;;;;25.26;44.19;101438.50;5060170;28;20110;-59
2021/07/07 11:23:09;;;;;;;4.70;1.67;;;;;;;25.08;44.51;101453.13;5070469;28;20049;-60
2021/07/07 11:25:38;;;;;;;8.02;2.00;;;;;;;24.87;44.11;101452.94;5064706;28;20064;-61
2021/07/07 11:28:07;;;;;;;6.13;1.42;;;;;;;24.72;44.34;101459.13;5079181;28;20071;-60
2021/07/07 11:30:34;;;;;;;5.18;1.90;;;;;;;24.85;44.93;101463.06;5072702;28;20044;-60